createdAt,value
2023-05-06T00:02:37.818Z,72.87
2023-05-06T00:05:40.814Z,72.65
2023-05-06T00:08:43.589Z,72.27
2023-05-06T00:11:47.660Z,71.91
2023-05-06T00:14:51.223Z,72.10
2023-05-06T00:17:55.729Z,72.10
2023-05-06T00:20:58.591Z,72.18
2023-05-06T00:24:01.405Z,72.18
2023-05-06T00:27:04.152Z,72.39
2023-05-06T00:30:07.672Z,72.42
2023-05-06T00:33:10.574Z,72.17
2023-05-06T00:36:13.409Z,72.31
2023-05-06T00:39:17.133Z,72.66
2023-05-06T00:42:22.675Z,72.55
2023-05-06T00:45:25.729Z,72.56
2023-05-06T00:48:28.992Z,72.59
2023-05-06T00:51:32.327Z,72.47
2023-05-06T00:54:35.975Z,72.60
2023-05-06T00:57:40.491Z,72.33
2023-05-06T01:00:43.318Z,72.70
2023-05-06T01:03:47.328Z,73.23
2023-05-06T01:07:25.048Z,73.18
2023-05-06T01:10:46.564Z,73.43
2023-05-06T01:13:59.188Z,73.73
2023-05-06T01:17:08.105Z,73.41
2023-05-06T01:20:12.320Z,73.75
2023-05-06T01:23:15.480Z,73.67
2023-05-06T01:26:18.216Z,72.78
2023-05-06T01:29:21.147Z,74.02
2023-05-06T01:32:42.647Z,73.94
2023-05-06T01:36:00.211Z,73.56
2023-05-06T01:39:14.847Z,73.77
2023-05-06T01:42:18.657Z,73.88
2023-05-06T01:45:24.915Z,74.04
2023-05-06T01:48:32.332Z,73.74
2023-05-06T01:51:35.436Z,73.96
2023-05-06T01:54:38.352Z,73.91
2023-05-06T01:57:41.142Z,73.67
2023-05-06T02:00:43.832Z,73.92
2023-05-06T02:03:48.044Z,73.78
2023-05-06T02:06:51.060Z,73.87
2023-05-06T02:09:55.011Z,73.67
2023-05-06T02:12:57.867Z,74.17
2023-05-06T02:16:01.546Z,74.51
2023-05-06T02:19:04.659Z,74.38
2023-05-06T02:22:08.094Z,74.54
2023-05-06T02:25:11.135Z,74.42
2023-05-06T02:28:14.406Z,74.56
2023-05-06T02:31:18.601Z,74.90
2023-05-06T02:34:21.893Z,75.02
2023-05-06T02:37:24.631Z,74.94
2023-05-06T02:40:27.396Z,74.63
2023-05-06T02:43:30.482Z,74.80
2023-05-06T02:46:35.332Z,75.07
2023-05-06T02:49:38.144Z,74.44
2023-05-06T02:52:40.897Z,74.79
2023-05-06T02:55:43.654Z,75.13
2023-05-06T02:58:46.551Z,75.16
2023-05-06T03:01:49.520Z,74.98
2023-05-06T03:04:52.469Z,75.11
2023-05-06T03:07:55.508Z,75.06
2023-05-06T03:10:58.489Z,75.23
2023-05-06T03:14:01.562Z,76.22
2023-05-06T03:17:04.396Z,75.26
2023-05-06T03:20:10.684Z,74.80
2023-05-06T03:23:17.232Z,75.51
2023-05-06T03:26:21.581Z,75.45
2023-05-06T03:29:24.865Z,75.35
2023-05-06T03:32:28.423Z,75.12
2023-05-06T03:35:31.600Z,75.38
2023-05-06T03:38:36.667Z,75.29
2023-05-06T03:41:43.356Z,74.82
2023-05-06T03:44:46.812Z,74.60
2023-05-06T03:47:49.701Z,74.46
2023-05-06T03:50:54.193Z,74.11
2023-05-06T03:53:57.756Z,74.11
2023-05-06T03:57:01.340Z,73.88
2023-05-06T04:00:04.944Z,73.55
2023-05-06T04:03:08.317Z,73.18
2023-05-06T04:06:23.364Z,73.37
2023-05-06T04:09:26.246Z,73.14
2023-05-06T04:12:30.713Z,72.86
2023-05-06T04:15:35.401Z,72.76
2023-05-06T04:18:41.867Z,72.56
2023-05-06T04:21:49.175Z,72.79
2023-05-06T04:24:54.038Z,72.67
2023-05-06T04:27:56.961Z,72.63
2023-05-06T04:31:02.370Z,72.25
2023-05-06T04:34:16.759Z,71.85
2023-05-06T04:37:21.249Z,70.90
2023-05-06T04:40:28.721Z,70.31
2023-05-06T04:43:31.675Z,70.19
2023-05-06T04:46:42.927Z,71.31
2023-05-06T04:49:47.669Z,70.39
2023-05-06T04:52:51.220Z,70.44
2023-05-06T04:55:56.276Z,69.62
2023-05-06T04:58:59.792Z,68.87
2023-05-06T05:02:03.796Z,70.12
2023-05-06T05:05:07.423Z,69.48
2023-05-06T05:08:13.407Z,68.51
2023-05-06T05:11:16.735Z,68.26
2023-05-06T05:14:19.591Z,67.95
2023-05-06T05:17:22.623Z,67.68
2023-05-06T05:20:26.607Z,67.74
2023-05-06T05:23:29.454Z,67.61
2023-05-06T05:26:32.198Z,66.76
2023-05-06T05:29:36.669Z,66.67
2023-05-06T05:32:42.168Z,66.21
2023-05-06T05:35:45.564Z,66.05
2023-05-06T05:38:50.205Z,67.69
2023-05-06T05:41:54.886Z,69.58
2023-05-06T05:44:57.868Z,68.30
2023-05-06T05:48:01.257Z,68.43
2023-05-06T05:51:04.613Z,67.43
2023-05-06T05:54:07.932Z,67.04
2023-05-06T05:57:11.387Z,67.21
2023-05-06T06:00:15.729Z,67.60
2023-05-06T06:03:21.268Z,68.15
2023-05-06T06:06:24.597Z,66.92
2023-05-06T06:09:28.233Z,65.82
2023-05-06T06:12:31.434Z,66.08
2023-05-06T06:15:35.805Z,65.26
2023-05-06T06:18:39.505Z,64.66
2023-05-06T06:21:42.752Z,65.21
2023-05-06T06:24:45.789Z,64.42
2023-05-06T06:27:48.503Z,66.05
2023-05-06T06:30:51.345Z,65.12
2023-05-06T06:33:54.147Z,65.46
2023-05-06T06:36:56.916Z,65.21
2023-05-06T06:39:59.657Z,64.50
2023-05-06T06:43:02.560Z,63.88
2023-05-06T06:46:23.834Z,60.18
2023-05-06T06:49:27.620Z,58.77
2023-05-06T06:52:30.448Z,56.63
2023-05-06T06:55:33.496Z,55.08
2023-05-06T06:58:36.408Z,54.05
2023-05-06T07:01:41.150Z,53.39
2023-05-06T07:04:44.510Z,52.88
2023-05-06T07:07:47.457Z,53.08
2023-05-06T07:10:50.256Z,52.84
2023-05-06T07:13:53.047Z,52.62
2023-05-06T07:16:56.095Z,52.68
2023-05-06T07:19:58.940Z,52.26
2023-05-06T07:23:01.688Z,51.62
2023-05-06T07:26:04.668Z,50.91
2023-05-06T07:29:08.031Z,51.19
2023-05-06T07:32:11.168Z,50.05
2023-05-06T07:35:13.972Z,48.78
2023-05-06T07:38:16.814Z,49.60
2023-05-06T07:41:19.568Z,48.45
2023-05-06T07:44:22.531Z,46.77
2023-05-06T07:47:32.645Z,47.30
2023-05-06T07:50:35.685Z,47.22
2023-05-06T07:53:40.335Z,46.33
2023-05-06T07:56:44.110Z,46.08
2023-05-06T07:59:49.513Z,45.99
2023-05-06T08:02:52.432Z,46.36
2023-05-06T08:05:55.530Z,46.61
2023-05-06T08:08:58.601Z,47.05
2023-05-06T08:12:02.222Z,46.11
2023-05-06T08:15:05.449Z,46.83
2023-05-06T08:18:21.087Z,46.55
2023-05-06T08:21:25.458Z,46.23
2023-05-06T08:24:28.852Z,46.26
2023-05-06T08:27:32.346Z,46.76
2023-05-06T08:30:35.127Z,45.79
2023-05-06T08:33:37.830Z,45.26
2023-05-06T08:36:40.588Z,44.76
2023-05-06T08:39:43.459Z,44.13
2023-05-06T08:42:48.144Z,45.10
2023-05-06T08:45:51.116Z,44.86
2023-05-06T08:48:53.902Z,46.21
2023-05-06T08:51:57.308Z,44.09
2023-05-06T08:55:04.993Z,43.93
2023-05-06T08:58:11.199Z,43.89
2023-05-06T09:01:16.055Z,44.32
2023-05-06T09:04:19.585Z,43.94
2023-05-06T09:07:23.428Z,42.33
2023-05-06T09:10:31.956Z,42.67
2023-05-06T09:13:35.294Z,42.76
2023-05-06T09:16:39.883Z,42.38
2023-05-06T09:19:43.001Z,42.11
2023-05-06T09:22:45.850Z,40.07
2023-05-06T09:25:51.231Z,41.49
2023-05-06T09:28:55.007Z,39.24
2023-05-06T09:31:58.293Z,38.71
2023-05-06T09:35:02.298Z,37.48
2023-05-06T09:38:07.134Z,38.36
2023-05-06T09:41:11.414Z,38.54
2023-05-06T09:44:15.616Z,37.88
2023-05-06T09:47:18.754Z,37.68
2023-05-06T09:50:22.871Z,36.42
2023-05-06T09:53:28.210Z,37.73
2023-05-06T09:56:31.713Z,38.44
2023-05-06T09:59:36.207Z,37.84
2023-05-06T10:02:41.595Z,35.94
2023-05-06T10:05:46.287Z,37.90
2023-05-06T10:08:49.584Z,34.65
2023-05-06T10:11:53.843Z,35.35
2023-05-06T10:14:56.862Z,35.37
2023-05-06T10:18:01.930Z,35.19
2023-05-06T10:21:10.109Z,33.79
2023-05-06T10:24:16.446Z,33.15
2023-05-06T10:27:23.683Z,35.50
2023-05-06T10:30:27.602Z,36.76
2023-05-06T10:33:31.528Z,35.95
2023-05-06T10:36:36.493Z,35.24
2023-05-06T10:39:42.325Z,33.72
2023-05-06T10:42:45.115Z,33.98
2023-05-06T10:46:00.671Z,33.80
2023-05-06T10:49:06.834Z,33.84
2023-05-06T10:52:12.541Z,34.45
2023-05-06T10:55:32.877Z,33.27
2023-05-06T10:58:36.634Z,30.79
2023-05-06T11:01:44.888Z,32.36
2023-05-06T11:04:52.741Z,34.72
2023-05-06T11:08:09.186Z,35.85
2023-05-06T11:11:48.992Z,37.41
2023-05-06T11:14:51.997Z,34.46
2023-05-06T11:17:56.735Z,35.92
2023-05-06T11:21:05.255Z,34.53
2023-05-06T11:24:08.785Z,34.81
2023-05-06T11:27:11.691Z,34.46
2023-05-06T11:30:15.336Z,35.75
2023-05-06T11:33:19.789Z,34.22
2023-05-06T11:36:23.018Z,33.88
2023-05-06T11:39:30.961Z,34.16
2023-05-06T11:42:34.013Z,31.34
2023-05-06T11:45:44.819Z,31.45
2023-05-06T11:48:47.860Z,31.55
2023-05-06T11:51:50.673Z,33.94
2023-05-06T11:54:54.070Z,31.29
2023-05-06T11:57:56.959Z,30.58
2023-05-06T12:01:02.658Z,31.21
2023-05-06T12:04:06.212Z,32.27
2023-05-06T12:07:11.120Z,32.78
2023-05-06T12:10:14.456Z,32.06
2023-05-06T12:13:18.582Z,32.02
2023-05-06T12:16:22.984Z,32.08
2023-05-06T12:19:26.704Z,30.64
2023-05-06T12:22:29.465Z,32.63
2023-05-06T12:25:36.856Z,33.81
2023-05-06T12:28:42.723Z,33.25
2023-05-06T12:31:47.434Z,30.97
2023-05-06T12:34:50.367Z,28.55
2023-05-06T12:37:53.242Z,28.17
2023-05-06T12:40:56.110Z,30.78
2023-05-06T12:43:58.898Z,31.19
2023-05-06T12:47:03.245Z,30.10
2023-05-06T12:50:06.302Z,30.86
2023-05-06T12:53:13.455Z,29.36
2023-05-06T12:56:16.668Z,31.06
2023-05-06T12:59:19.407Z,30.90
2023-05-06T13:02:22.222Z,30.66
2023-05-06T13:05:25.108Z,31.61
2023-05-06T13:08:28.630Z,28.94
2023-05-06T13:11:31.419Z,29.71
2023-05-06T13:14:34.242Z,29.45
2023-05-06T13:17:37.226Z,30.48
2023-05-06T13:20:40.832Z,29.86
2023-05-06T13:23:47.697Z,28.68
2023-05-06T13:26:50.517Z,28.32
2023-05-06T13:29:53.298Z,26.64
2023-05-06T13:32:56.418Z,28.07
2023-05-06T13:35:59.285Z,26.35
2023-05-06T13:39:02.074Z,26.68
2023-05-06T13:42:06.716Z,25.82
2023-05-06T13:45:11.798Z,25.30
2023-05-06T13:48:15.013Z,27.49
2023-05-06T13:51:19.052Z,29.31
2023-05-06T13:54:21.876Z,29.91
2023-05-06T13:57:26.069Z,31.14
2023-05-06T14:00:28.985Z,28.17
2023-05-06T14:03:31.777Z,27.23
2023-05-06T14:06:34.593Z,26.86
2023-05-06T14:09:37.420Z,26.33
2023-05-06T14:12:40.704Z,25.65
2023-05-06T14:15:43.591Z,24.46
2023-05-06T14:18:46.480Z,27.89
2023-05-06T14:21:49.292Z,26.43
2023-05-06T14:24:52.168Z,26.93
2023-05-06T14:27:55.207Z,26.16
2023-05-06T14:30:58.484Z,25.99
2023-05-06T14:34:02.765Z,28.22
2023-05-06T14:37:06.091Z,29.30
2023-05-06T14:40:10.241Z,29.07
2023-05-06T14:43:13.068Z,30.59
2023-05-06T14:46:16.296Z,30.62
2023-05-06T14:49:19.271Z,28.90
2023-05-06T14:52:22.156Z,28.07
2023-05-06T14:55:25.713Z,29.35
2023-05-06T14:58:28.608Z,29.74
2023-05-06T15:01:33.698Z,28.77
2023-05-06T15:04:36.918Z,29.37
2023-05-06T15:07:39.720Z,29.43
2023-05-06T15:10:42.506Z,29.27
2023-05-06T15:13:45.336Z,29.50
2023-05-06T15:16:48.171Z,30.80
2023-05-06T15:19:51.237Z,30.72
2023-05-06T15:22:54.102Z,30.80
2023-05-06T15:25:58.008Z,30.20
2023-05-06T15:29:01.182Z,29.93
2023-05-06T15:32:04.110Z,29.83
2023-05-06T15:35:07.226Z,29.49
2023-05-06T15:38:09.995Z,29.42
2023-05-06T15:41:12.775Z,29.58
2023-05-06T15:44:16.390Z,30.94
2023-05-06T15:47:19.736Z,31.99
2023-05-06T15:50:32.420Z,32.32
2023-05-06T15:53:42.235Z,31.77
2023-05-06T15:56:46.208Z,31.93
2023-05-06T15:59:48.958Z,32.13
2023-05-06T16:02:51.834Z,31.26
2023-05-06T16:05:57.879Z,30.59
2023-05-06T16:09:00.959Z,30.74
2023-05-06T16:12:04.189Z,30.45
2023-05-06T16:15:08.404Z,30.34
2023-05-06T16:18:11.306Z,30.19
2023-05-06T16:21:14.133Z,29.83
2023-05-06T16:24:16.918Z,31.20
2023-05-06T16:27:19.813Z,32.40
2023-05-06T16:30:23.104Z,32.34
2023-05-06T16:33:25.956Z,33.44
2023-05-06T16:36:28.941Z,33.73
2023-05-06T16:39:31.687Z,33.90
2023-05-06T16:42:34.673Z,34.14
2023-05-06T16:45:38.416Z,34.35
2023-05-06T16:48:41.354Z,34.79
2023-05-06T16:51:44.203Z,34.80
2023-05-06T16:54:47.141Z,35.12
2023-05-06T16:57:50.271Z,35.64
2023-05-06T17:00:54.479Z,35.61
2023-05-06T17:03:57.325Z,35.93
2023-05-06T17:07:00.071Z,36.21
2023-05-06T17:10:02.869Z,36.12
2023-05-06T17:13:05.962Z,36.35
2023-05-06T17:16:08.855Z,36.72
2023-05-06T17:19:12.304Z,38.36
2023-05-06T17:22:15.111Z,39.07
2023-05-06T17:25:18.268Z,39.82
2023-05-06T17:28:21.299Z,40.08
2023-05-06T17:31:24.472Z,40.42
2023-05-06T17:34:27.415Z,40.74
2023-05-06T17:37:31.221Z,41.55
2023-05-06T17:40:34.068Z,44.06
2023-05-06T17:43:39.406Z,45.73
2023-05-06T17:46:42.206Z,43.87
2023-05-06T17:49:45.778Z,44.84
2023-05-06T17:52:51.038Z,46.39
2023-05-06T17:55:53.859Z,47.23
2023-05-06T17:59:01.350Z,46.80
2023-05-06T18:02:04.358Z,47.41
2023-05-06T18:05:08.436Z,49.56
2023-05-06T18:08:13.770Z,49.51
2023-05-06T18:11:17.573Z,50.67
2023-05-06T18:14:20.818Z,51.46
2023-05-06T18:17:23.671Z,52.48
2023-05-06T18:20:27.185Z,52.33
2023-05-06T18:23:30.205Z,52.78
2023-05-06T18:26:43.206Z,53.44
2023-05-06T18:29:48.367Z,53.70
2023-05-06T18:32:53.320Z,54.52
2023-05-06T18:35:57.372Z,55.22
2023-05-06T18:39:00.179Z,56.10
2023-05-06T18:42:04.024Z,57.02
2023-05-06T18:45:07.447Z,57.63
2023-05-06T18:48:11.077Z,57.81
2023-05-06T18:51:17.208Z,58.52
2023-05-06T18:54:20.044Z,58.15
2023-05-06T18:57:24.136Z,57.97
2023-05-06T19:00:28.344Z,58.75
2023-05-06T19:03:33.386Z,59.17
2023-05-06T19:06:38.512Z,60.13
2023-05-06T19:09:43.168Z,60.28
2023-05-06T19:12:46.143Z,60.72
2023-05-06T19:15:48.948Z,61.04
2023-05-06T19:18:51.709Z,61.82
2023-05-06T19:21:54.542Z,61.81
2023-05-06T19:24:57.292Z,62.04
2023-05-06T19:28:00.011Z,62.62
2023-05-06T19:31:09.670Z,63.56
2023-05-06T19:34:12.550Z,63.52
2023-05-06T19:37:15.935Z,63.65
2023-05-06T19:40:22.829Z,63.53
2023-05-06T19:43:25.732Z,63.88
2023-05-06T19:46:28.661Z,65.08
2023-05-06T19:49:32.633Z,65.23
2023-05-06T19:52:35.938Z,65.02
2023-05-06T19:55:38.786Z,65.13
2023-05-06T19:58:41.958Z,65.54
2023-05-06T20:01:44.869Z,65.95
2023-05-06T20:04:47.651Z,65.73
2023-05-06T20:07:51.477Z,66.26
2023-05-06T20:10:54.312Z,66.26
2023-05-06T20:13:57.397Z,66.46
2023-05-06T20:17:02.628Z,66.63
2023-05-06T20:20:10.052Z,66.15
2023-05-06T20:23:13.249Z,65.86
2023-05-06T20:26:16.117Z,66.04
2023-05-06T20:29:19.317Z,66.11
2023-05-06T20:32:22.200Z,66.44
2023-05-06T20:35:25.766Z,66.30
2023-05-06T20:38:30.261Z,66.37
2023-05-06T20:41:33.142Z,66.21
2023-05-06T20:44:35.876Z,66.73
2023-05-06T20:47:38.808Z,66.99
2023-05-06T20:50:41.870Z,67.46
2023-05-06T20:53:46.301Z,66.92
2023-05-06T20:56:49.139Z,66.69
2023-05-06T20:59:52.717Z,67.38
2023-05-06T21:02:55.736Z,70.20
2023-05-06T21:05:58.505Z,70.05
2023-05-06T21:09:01.481Z,69.04
2023-05-06T21:12:04.587Z,69.04
2023-05-06T21:15:08.386Z,68.31
2023-05-06T21:18:11.418Z,68.31
2023-05-06T21:21:14.332Z,67.99
2023-05-06T21:24:17.334Z,67.37
2023-05-06T21:27:20.125Z,67.00
2023-05-06T21:30:22.862Z,66.91
2023-05-06T21:33:25.653Z,67.38
2023-05-06T21:36:28.449Z,67.53
2023-05-06T21:39:31.482Z,67.50
2023-05-06T21:42:34.181Z,67.42
2023-05-06T21:45:37.259Z,67.24
2023-05-06T21:48:39.953Z,67.38
2023-05-06T21:51:42.852Z,67.78
2023-05-06T21:54:46.507Z,67.96
2023-05-06T21:57:49.478Z,68.20
2023-05-06T22:00:52.590Z,68.20
2023-05-06T22:03:55.746Z,67.76
2023-05-06T22:06:58.650Z,68.25
2023-05-06T22:10:01.611Z,68.03
2023-05-06T22:13:04.539Z,68.67
2023-05-06T22:16:07.999Z,68.53
2023-05-06T22:19:10.775Z,68.17
2023-05-06T22:22:13.565Z,68.28
2023-05-06T22:25:16.373Z,68.70
2023-05-06T22:28:20.049Z,68.82
2023-05-06T22:31:24.785Z,68.68
2023-05-06T22:34:27.873Z,68.67
2023-05-06T22:37:31.037Z,69.00
2023-05-06T22:40:33.906Z,68.72
2023-05-06T22:43:36.666Z,68.39
2023-05-06T22:46:39.368Z,68.75
2023-05-06T22:49:43.008Z,68.57
2023-05-06T22:52:45.810Z,68.67
2023-05-06T22:55:48.858Z,69.34
2023-05-06T22:58:51.960Z,69.63
2023-05-06T23:01:55.276Z,69.49
2023-05-06T23:04:59.499Z,69.41
2023-05-06T23:08:02.245Z,69.55
2023-05-06T23:11:05.602Z,69.45
2023-05-06T23:14:08.983Z,69.50
2023-05-06T23:17:12.506Z,69.54
2023-05-06T23:20:17.293Z,69.64
2023-05-06T23:23:20.207Z,69.78
2023-05-06T23:26:23.020Z,69.78
2023-05-06T23:29:25.858Z,69.83
2023-05-06T23:32:28.718Z,69.44
2023-05-06T23:35:32.535Z,69.92
2023-05-06T23:38:35.870Z,69.91
2023-05-06T23:41:38.696Z,70.06
2023-05-06T23:44:41.682Z,70.07
2023-05-06T23:47:45.386Z,70.21
2023-05-06T23:50:48.688Z,70.28
2023-05-06T23:53:51.534Z,70.52
2023-05-06T23:56:55.794Z,70.26
2023-05-06T23:59:58.583Z,70.00
